Time;durP1;ratioP1;P1;durP2;ratioP2;P2;SDS_P1;SDS_P2;PMS_P1;PMS_P2;Temp;Humidity;BMP_temperature;BMP_pressure;BME280_temperature;BME280_humidity;BME280_pressure;Samples;Min_cycle;Max_cycle;Signal;HPM_P1;HPM_P2
2021/07/24 00:01:14;;;;;;;24.88;21.42;;;;;;;;;;5004046;28;20026;-83
2021/07/24 00:03:59;;;;;;;20.08;14.40;;;;;;;;;;4990585;28;20026;-83
2021/07/24 00:06:45;;;;;;;18.80;14.23;;;;;;;;;;4990331;28;20120;-83
2021/07/24 00:09:30;;;;;;;16.70;12.60;;;;;;;;;;4988675;28;20080;-83
2021/07/24 00:12:16;;;;;;;17.98;13.32;;;;;;;;;;5003082;28;20021;-82
2021/07/24 00:15:01;;;;;;;17.95;14.02;;;;;;;;;;5023957;28;20469;-82
2021/07/24 00:17:46;;;;;;;18.08;14.25;;;;;;;;;;5009720;28;20180;-85
2021/07/24 00:20:31;;;;;;;21.25;14.25;;;;;;;;;;5008167;28;20113;-82
2021/07/24 00:23:16;;;;;;;20.95;16.02;;;;;;;;;;5023118;28;20018;-83
2021/07/24 00:26:03;;;;;;;17.63;15.40;;;;;;;;;;5009782;28;20026;-83
2021/07/24 00:28:49;;;;;;;17.98;14.10;;;;;;;;;;5009430;28;20416;-83
2021/07/24 00:31:35;;;;;;;16.27;13.45;;;;;;;;;;5009298;28;20096;-82
2021/07/24 00:34:21;;;;;;;16.23;13.07;;;;;;;;;;5009608;28;20026;-83
2021/07/24 00:37:06;;;;;;;20.85;14.73;;;;;;;;;;5009341;28;20061;-83
2021/07/24 00:39:51;;;;;;;18.80;13.70;;;;;;;;;;5018204;28;20640;-83
2021/07/24 00:42:37;;;;;;;19.30;14.30;;;;;;;;;;5034550;28;20356;-82
2021/07/24 00:45:23;;;;;;;17.13;14.18;;;;;;;;;;5034743;28;20035;-83
2021/07/24 00:48:10;;;;;;;17.58;14.85;;;;;;;;;;5048999;28;20020;-83
2021/07/24 00:50:57;;;;;;;16.63;13.35;;;;;;;;;;5033318;28;20025;-83
2021/07/24 00:53:42;;;;;;;16.27;13.77;;;;;;;;;;5034524;28;20032;-83
2021/07/24 00:56:28;;;;;;;17.17;12.50;;;;;;;;;;5034845;28;20348;-83
2021/07/24 00:59:13;;;;;;;17.85;14.18;;;;;;;;;;5034478;28;20036;-83
2021/07/24 01:01:58;;;;;;;18.55;13.25;;;;;;;;;;5048425;28;20025;-85
2021/07/24 01:04:43;;;;;;;18.17;13.38;;;;;;;;;;5034812;28;20097;-86
2021/07/24 01:07:32;;;;;;;17.17;13.60;;;;;;;;;;5034964;28;20040;-83
2021/07/24 01:10:17;;;;;;;16.27;13.57;;;;;;;;;;5033063;28;20500;-83
2021/07/24 01:13:02;;;;;;;18.65;13.55;;;;;;;;;;5047052;28;20402;-83
2021/07/24 01:15:49;;;;;;;17.98;14.32;;;;;;;;;;5042253;28;20380;-83
2021/07/24 01:18:35;;;;;;;16.33;12.52;;;;;;;;;;5034253;28;20037;-83
2021/07/24 01:21:25;;;;;;;15.43;12.20;;;;;;;;;;5033861;28;20021;-82
2021/07/24 01:24:10;;;;;;;19.17;13.38;;;;;;;;;;5048020;28;20033;-84
2021/07/24 01:26:55;;;;;;;17.05;13.98;;;;;;;;;;5044447;28;20028;-83
2021/07/24 01:29:40;;;;;;;17.95;13.50;;;;;;;;;;5033953;28;20028;-83
2021/07/24 01:32:25;;;;;;;18.50;13.73;;;;;;;;;;5034397;28;20025;-83
2021/07/24 01:35:11;;;;;;;16.42;12.73;;;;;;;;;;5020389;28;20074;-83
2021/07/24 01:37:56;;;;;;;16.23;13.52;;;;;;;;;;5034143;28;20565;-83
2021/07/24 01:40:42;;;;;;;18.67;14.25;;;;;;;;;;5033875;28;20495;-83
2021/07/24 01:43:27;;;;;;;18.15;13.38;;;;;;;;;;5033901;28;20021;-83
2021/07/24 01:46:12;;;;;;;17.85;13.05;;;;;;;;;;5034186;28;20110;-83
2021/07/24 01:54:55;;;;;;;17.92;13.98;;;;;;;;;;5033961;28;20120;-82
2021/07/24 01:57:42;;;;;;;22.27;13.68;;;;;;;;;;5033738;28;20028;-87
2021/07/24 02:00:29;;;;;;;17.73;12.32;;;;;;;;;;5033816;28;20033;-83
2021/07/24 02:03:15;;;;;;;18.70;14.57;;;;;;;;;;5033537;28;20677;-83
2021/07/24 02:06:01;;;;;;;19.42;14.95;;;;;;;;;;5033208;28;20021;-83
2021/07/24 02:08:50;;;;;;;17.25;13.40;;;;;;;;;;5034067;28;20472;-85
2021/07/24 02:11:35;;;;;;;19.65;15.25;;;;;;;;;;5034663;28;20068;-83
2021/07/24 02:14:20;;;;;;;16.70;13.80;;;;;;;;;;5053435;28;20024;-83
2021/07/24 02:17:05;;;;;;;21.48;14.68;;;;;;;;;;5033471;28;20480;-83
2021/07/24 02:19:51;;;;;;;19.65;14.15;;;;;;;;;;5032367;28;20431;-83
2021/07/24 02:22:37;;;;;;;21.38;14.63;;;;;;;;;;5020110;28;20419;-84
2021/07/24 02:25:22;;;;;;;19.48;15.23;;;;;;;;;;5013786;28;20381;-83
2021/07/24 02:28:07;;;;;;;18.23;13.43;;;;;;;;;;5014000;28;20080;-83
2021/07/24 02:30:53;;;;;;;15.30;12.35;;;;;;;;;;5012238;28;20033;-83
2021/07/24 02:33:38;;;;;;;16.50;13.57;;;;;;;;;;5013687;28;20557;-83
2021/07/24 02:36:23;;;;;;;16.60;13.13;;;;;;;;;;5013738;28;20325;-82
2021/07/24 02:39:09;;;;;;;15.00;12.75;;;;;;;;;;5013751;28;20029;-83
2021/07/24 02:41:54;;;;;;;18.67;13.15;;;;;;;;;;5011764;28;20091;-83
2021/07/24 02:44:39;;;;;;;19.77;14.40;;;;;;;;;;5013438;28;20033;-83
2021/07/24 02:47:24;;;;;;;16.15;13.65;;;;;;;;;;5013775;28;20506;-84
2021/07/24 02:50:10;;;;;;;19.45;12.40;;;;;;;;;;5013890;28;20120;-83
2021/07/24 02:52:55;;;;;;;19.40;13.15;;;;;;;;;;5013721;28;20132;-84
2021/07/24 02:55:40;;;;;;;16.30;12.90;;;;;;;;;;5027492;28;20028;-83
2021/07/24 02:58:25;;;;;;;15.68;12.18;;;;;;;;;;5013457;28;20029;-87
2021/07/24 03:01:11;;;;;;;21.63;14.75;;;;;;;;;;5025484;28;20121;-83
2021/07/24 03:03:56;;;;;;;18.85;14.13;;;;;;;;;;5013203;28;20021;-84
2021/07/24 03:06:41;;;;;;;24.48;14.30;;;;;;;;;;5013282;28;20087;-83
2021/07/24 03:09:26;;;;;;;17.48;13.75;;;;;;;;;;5013385;28;20025;-84
2021/07/24 03:12:11;;;;;;;17.10;13.63;;;;;;;;;;5025000;28;20027;-83
2021/07/24 03:14:57;;;;;;;21.00;13.82;;;;;;;;;;5046195;28;20028;-83
2021/07/24 03:17:42;;;;;;;17.52;13.70;;;;;;;;;;5048407;28;20021;-85
2021/07/24 03:20:27;;;;;;;17.52;13.43;;;;;;;;;;5036540;28;20105;-84
2021/07/24 03:23:13;;;;;;;16.65;12.70;;;;;;;;;;5036218;28;20133;-84
2021/07/24 03:25:58;;;;;;;17.17;13.02;;;;;;;;;;5036525;28;20055;-83
2021/07/24 03:28:44;;;;;;;16.17;12.13;;;;;;;;;;5036566;28;20111;-83
2021/07/24 03:31:29;;;;;;;16.25;12.40;;;;;;;;;;5036447;28;20013;-83
2021/07/24 03:34:14;;;;;;;16.10;12.43;;;;;;;;;;5033238;28;20017;-83
2021/07/24 03:36:59;;;;;;;15.35;12.45;;;;;;;;;;5032850;28;20013;-83
2021/07/24 03:39:44;;;;;;;15.52;12.93;;;;;;;;;;5036190;28;20171;-83
2021/07/24 03:42:30;;;;;;;16.13;13.30;;;;;;;;;;5035850;28;20096;-83
2021/07/24 03:45:15;;;;;;;17.17;13.55;;;;;;;;;;5036248;28;20126;-83
2021/07/24 03:48:01;;;;;;;16.30;12.32;;;;;;;;;;5036325;28;20029;-84
2021/07/24 03:50:47;;;;;;;18.40;13.63;;;;;;;;;;5049746;28;20552;-83
2021/07/24 03:53:32;;;;;;;16.15;12.40;;;;;;;;;;5036091;28;20037;-83
2021/07/24 03:56:18;;;;;;;16.67;12.80;;;;;;;;;;5050111;28;20021;-82
2021/07/24 03:59:03;;;;;;;15.23;12.63;;;;;;;;;;5036045;28;20139;-83
2021/07/24 04:01:50;;;;;;;17.10;12.43;;;;;;;;;;5049847;28;20112;-82
2021/07/24 04:04:35;;;;;;;16.05;12.05;;;;;;;;;;5033921;28;20475;-84
2021/07/24 04:07:21;;;;;;;17.88;13.52;;;;;;;;;;5034331;28;20086;-83
2021/07/24 04:10:08;;;;;;;15.85;12.10;;;;;;;;;;5035906;28;20032;-84
2021/07/24 04:12:53;;;;;;;14.23;12.32;;;;;;;;;;5047084;28;20028;-82
2021/07/24 04:15:38;;;;;;;20.45;12.55;;;;;;;;;;5044825;28;20542;-83
2021/07/24 04:18:25;;;;;;;18.25;12.60;;;;;;;;;;5035823;28;20029;-83
2021/07/24 04:21:10;;;;;;;15.40;12.98;;;;;;;;;;5019881;28;20025;-82
2021/07/24 04:23:55;;;;;;;18.30;12.75;;;;;;;;;;5049228;28;20039;-83
2021/07/24 04:26:40;;;;;;;17.52;13.02;;;;;;;;;;5035153;28;20025;-82
2021/07/24 04:29:25;;;;;;;14.98;12.10;;;;;;;;;;5033230;28;20036;-83
2021/07/24 04:32:11;;;;;;;17.48;13.02;;;;;;;;;;5035213;28;20073;-82
2021/07/24 04:34:56;;;;;;;19.02;13.50;;;;;;;;;;5035132;28;20021;-82
2021/07/24 04:37:41;;;;;;;15.27;11.35;;;;;;;;;;5031775;28;20025;-83
2021/07/24 04:40:26;;;;;;;16.80;12.02;;;;;;;;;;5034590;28;20423;-83
2021/07/24 04:43:13;;;;;;;18.10;12.85;;;;;;;;;;5034962;28;20017;-82
2021/07/24 04:45:58;;;;;;;15.07;12.48;;;;;;;;;;5035042;28;20506;-82
2021/07/24 04:48:43;;;;;;;18.42;13.35;;;;;;;;;;5035056;28;20047;-83
2021/07/24 04:51:29;;;;;;;16.80;12.02;;;;;;;;;;5034955;28;20091;-83
2021/07/24 04:54:14;;;;;;;15.95;11.93;;;;;;;;;;5034946;28;20023;-82
2021/07/24 04:56:59;;;;;;;16.88;12.25;;;;;;;;;;5034964;28;20028;-82
2021/07/24 04:59:48;;;;;;;16.00;11.70;;;;;;;;;;5034680;28;20417;-83
2021/07/24 05:02:34;;;;;;;19.10;12.93;;;;;;;;;;5039669;28;20043;-83
2021/07/24 05:05:19;;;;;;;17.52;12.65;;;;;;;;;;5044347;28;20028;-82
2021/07/24 05:08:06;;;;;;;17.45;12.27;;;;;;;;;;5033888;28;20025;-82
2021/07/24 05:10:51;;;;;;;14.80;12.70;;;;;;;;;;5034400;28;20029;-82
2021/07/24 05:13:36;;;;;;;17.13;12.55;;;;;;;;;;5065864;28;20028;-83
2021/07/24 05:16:22;;;;;;;16.63;13.23;;;;;;;;;;5037421;28;20617;-82
2021/07/24 05:19:08;;;;;;;15.95;13.48;;;;;;;;;;5046434;28;20033;-82
2021/07/24 05:21:53;;;;;;;16.75;12.32;;;;;;;;;;5034384;28;20098;-82
2021/07/24 05:24:43;;;;;;;17.05;13.25;;;;;;;;;;5034619;28;20052;-82
2021/07/24 05:27:28;;;;;;;20.27;13.45;;;;;;;;;;5034704;28;20021;-82
2021/07/24 05:30:14;;;;;;;14.07;11.73;;;;;;;;;;5034706;28;20048;-83
2021/07/24 05:32:59;;;;;;;14.63;12.07;;;;;;;;;;5034282;28;20548;-83
2021/07/24 05:35:45;;;;;;;14.35;11.70;;;;;;;;;;5034223;28;20072;-83
2021/07/24 05:38:31;;;;;;;18.67;12.63;;;;;;;;;;5034590;28;20055;-83
2021/07/24 05:41:16;;;;;;;14.05;12.52;;;;;;;;;;5031240;28;20132;-83
2021/07/24 05:44:01;;;;;;;13.98;11.25;;;;;;;;;;5030508;28;20031;-82
2021/07/24 05:46:47;;;;;;;14.50;11.52;;;;;;;;;;5033942;28;20104;-83
2021/07/24 05:49:32;;;;;;;17.00;12.60;;;;;;;;;;5033871;28;20025;-83
2021/07/24 05:52:17;;;;;;;18.67;12.63;;;;;;;;;;5034086;28;20083;-83
2021/07/24 05:55:03;;;;;;;19.55;11.43;;;;;;;;;;5047879;28;20116;-84
2021/07/24 05:57:48;;;;;;;15.70;12.45;;;;;;;;;;5033943;28;20064;-83
2021/07/24 06:00:33;;;;;;;16.65;13.10;;;;;;;;;;5046239;28;20025;-83
2021/07/24 06:03:18;;;;;;;22.30;12.52;;;;;;;;;;5031679;28;20021;-82
2021/07/24 06:06:03;;;;;;;15.18;11.70;;;;;;;;;;5047511;28;20031;-84
2021/07/24 06:08:49;;;;;;;18.65;11.43;;;;;;;;;;5032247;28;20028;-82
2021/07/24 06:11:34;;;;;;;16.92;12.10;;;;;;;;;;5047502;28;20693;-83
2021/07/24 06:14:19;;;;;;;16.75;12.95;;;;;;;;;;5053803;28;20020;-83
2021/07/24 06:17:04;;;;;;;16.77;12.68;;;;;;;;;;5014142;28;20024;-83
2021/07/24 06:19:50;;;;;;;13.95;11.90;;;;;;;;;;5013866;28;20029;-83
2021/07/24 06:22:35;;;;;;;15.90;12.75;;;;;;;;;;5013616;28;20117;-84
2021/07/24 06:25:20;;;;;;;15.48;12.32;;;;;;;;;;5014061;28;20021;-83
2021/07/24 06:28:05;;;;;;;17.85;12.65;;;;;;;;;;5013725;28;20546;-84
2021/07/24 06:30:50;;;;;;;15.38;11.95;;;;;;;;;;5012486;28;20029;-84
2021/07/24 06:33:36;;;;;;;14.63;12.05;;;;;;;;;;5014177;28;20029;-84
2021/07/24 06:36:21;;;;;;;15.95;12.68;;;;;;;;;;5013644;28;20021;-84
2021/07/24 06:39:06;;;;;;;14.75;11.25;;;;;;;;;;5014144;28;20033;-83
2021/07/24 06:41:51;;;;;;;17.38;11.60;;;;;;;;;;5013777;28;20389;-82
2021/07/24 06:44:36;;;;;;;17.30;13.05;;;;;;;;;;5013527;28;20025;-84
2021/07/24 06:47:22;;;;;;;18.08;12.85;;;;;;;;;;5013840;28;20049;-85
2021/07/24 06:50:08;;;;;;;14.30;11.77;;;;;;;;;;5012335;28;20028;-84
2021/07/24 06:52:57;;;;;;;15.73;12.02;;;;;;;;;;5017263;28;20021;-84
2021/07/24 06:55:42;;;;;;;15.68;12.15;;;;;;;;;;5020765;28;20442;-84
2021/07/24 06:58:27;;;;;;;15.93;11.38;;;;;;;;;;5017790;28;20668;-84
2021/07/24 07:01:12;;;;;;;18.70;12.75;;;;;;;;;;5017360;28;20110;-84
2021/07/24 07:03:57;;;;;;;14.75;12.05;;;;;;;;;;5017335;28;20064;-84
2021/07/24 07:06:43;;;;;;;16.63;12.68;;;;;;;;;;5016852;28;20468;-84
2021/07/24 07:09:28;;;;;;;18.45;12.38;;;;;;;;;;5015295;28;20065;-84
2021/07/24 07:12:13;;;;;;;16.85;12.57;;;;;;;;;;5015537;28;20024;-84
2021/07/24 07:14:59;;;;;;;15.77;12.65;;;;;;;;;;5051254;28;20020;-83
2021/07/24 07:17:44;;;;;;;14.38;12.20;;;;;;;;;;5035058;28;20032;-83
2021/07/24 07:20:29;;;;;;;14.75;11.77;;;;;;;;;;5036414;28;20017;-85
2021/07/24 07:23:14;;;;;;;17.08;12.10;;;;;;;;;;5036266;28;20476;-84
2021/07/24 07:26:01;;;;;;;14.07;11.63;;;;;;;;;;5035761;28;20021;-85
2021/07/24 07:28:46;;;;;;;15.10;11.45;;;;;;;;;;5050565;28;20043;-83
2021/07/24 07:31:31;;;;;;;17.50;13.00;;;;;;;;;;5022560;28;20025;-84
2021/07/24 07:34:17;;;;;;;27.50;21.02;;;;;;;;;;5035823;28;20542;-84
2021/07/24 07:37:02;;;;;;;25.15;19.65;;;;;;;;;;5050328;28;20028;-82
2021/07/24 07:39:47;;;;;;;17.73;13.45;;;;;;;;;;5034474;28;20040;-83
2021/07/24 07:42:32;;;;;;;13.80;11.63;;;;;;;;;;5036150;28;20035;-82
2021/07/24 07:45:18;;;;;;;16.08;13.05;;;;;;;;;;5036235;28;20112;-83
2021/07/24 07:48:06;;;;;;;16.45;12.90;;;;;;;;;;5036315;28;20570;-82
2021/07/24 07:50:52;;;;;;;17.35;12.48;;;;;;;;;;5036276;28;20036;-82
2021/07/24 07:53:38;;;;;;;18.73;12.73;;;;;;;;;;5035761;28;20550;-83
2021/07/24 07:56:23;;;;;;;17.23;12.77;;;;;;;;;;5036467;28;20036;-83
2021/07/24 07:59:08;;;;;;;18.80;12.80;;;;;;;;;;5035806;28;20031;-82
2021/07/24 08:01:53;;;;;;;15.57;12.52;;;;;;;;;;5035673;28;20020;-82
2021/07/24 08:04:38;;;;;;;16.17;12.25;;;;;;;;;;5035375;28;20024;-83
2021/07/24 08:07:24;;;;;;;19.60;12.57;;;;;;;;;;5022375;28;20035;-83
2021/07/24 08:10:09;;;;;;;15.38;12.52;;;;;;;;;;5035988;28;20017;-83
2021/07/24 08:12:54;;;;;;;21.48;12.88;;;;;;;;;;5047836;28;20162;-84
2021/07/24 08:15:40;;;;;;;17.42;11.93;;;;;;;;;;5044698;28;20113;-83
2021/07/24 08:18:25;;;;;;;23.65;20.10;;;;;;;;;;5035806;28;20081;-84
2021/07/24 08:21:10;;;;;;;22.40;16.42;;;;;;;;;;5034120;28;20028;-84
2021/07/24 08:23:55;;;;;;;16.70;13.60;;;;;;;;;;5035454;28;20075;-84
2021/07/24 08:26:40;;;;;;;21.27;12.63;;;;;;;;;;5035571;28;20025;-84
2021/07/24 08:29:26;;;;;;;17.75;12.63;;;;;;;;;;5035504;28;20021;-84
2021/07/24 08:32:11;;;;;;;19.98;12.55;;;;;;;;;;5035385;28;20437;-84
2021/07/24 08:34:56;;;;;;;16.60;12.10;;;;;;;;;;5035443;28;20114;-84
2021/07/24 08:37:42;;;;;;;14.57;11.60;;;;;;;;;;5035500;28;20021;-86
2021/07/24 08:40:27;;;;;;;17.92;13.20;;;;;;;;;;5049069;28;20045;-85
2021/07/24 08:43:12;;;;;;;16.10;13.15;;;;;;;;;;5035169;28;20040;-84
2021/07/24 08:45:58;;;;;;;15.85;12.25;;;;;;;;;;5035527;28;20032;-84
2021/07/24 08:48:43;;;;;;;15.23;12.02;;;;;;;;;;5033850;28;20032;-84
2021/07/24 08:51:30;;;;;;;18.20;13.57;;;;;;;;;;5034999;28;20021;-84
2021/07/24 08:54:15;;;;;;;19.50;12.90;;;;;;;;;;5035121;28;20029;-85
2021/07/24 08:57:05;;;;;;;20.80;13.80;;;;;;;;;;5035040;28;20475;-84
2021/07/24 08:59:50;;;;;;;;;;;;;;;;;;5033834;28;20044;-84
2021/07/24 09:02:36;;;;;;;18.48;12.65;;;;;;;;;;5034714;28;19938;-82
2021/07/24 09:05:21;;;;;;;16.50;13.13;;;;;;;;;;5034370;28;20380;-84
2021/07/24 09:08:08;;;;;;;18.05;12.32;;;;;;;;;;5034767;28;20163;-83
2021/07/24 09:10:54;;;;;;;18.85;12.93;;;;;;;;;;5032889;28;20037;-85
2021/07/24 09:13:39;;;;;;;20.25;12.57;;;;;;;;;;5052807;28;20063;-84
2021/07/24 09:16:25;;;;;;;19.73;14.05;;;;;;;;;;5034471;28;20063;-84
2021/07/24 09:19:11;;;;;;;23.58;18.45;;;;;;;;;;5034788;28;20143;-84
2021/07/24 09:21:56;;;;;;;18.38;13.52;;;;;;;;;;5034810;28;20029;-85
2021/07/24 09:24:41;;;;;;;16.23;12.18;;;;;;;;;;5034935;28;20422;-86
2021/07/24 09:27:26;;;;;;;16.63;12.80;;;;;;;;;;5033463;28;20028;-84
2021/07/24 09:30:24;;;;;;;15.27;11.85;;;;;;;;;;5034873;28;20093;-85
2021/07/24 09:33:16;;;;;;;15.00;12.60;;;;;;;;;;5034711;28;20025;-85
2021/07/24 09:36:02;;;;;;;20.83;14.57;;;;;;;;;;5045311;28;20064;-85
2021/07/24 09:38:47;;;;;;;18.70;13.18;;;;;;;;;;5048443;28;20120;-85
2021/07/24 09:41:32;;;;;;;17.20;12.07;;;;;;;;;;5034474;28;20462;-85
2021/07/24 09:44:28;;;;;;;16.98;11.95;;;;;;;;;;5034980;28;20112;-85
2021/07/24 09:47:28;;;;;;;18.13;12.43;;;;;;;;;;5035395;28;20057;-85
2021/07/24 09:50:14;;;;;;;14.43;11.35;;;;;;;;;;5034991;28;20134;-85
2021/07/24 09:52:59;;;;;;;16.20;12.70;;;;;;;;;;5034473;28;20120;-84
2021/07/24 09:55:45;;;;;;;15.40;12.15;;;;;;;;;;5035065;28;20094;-86
2021/07/24 09:58:31;;;;;;;14.40;12.05;;;;;;;;;;5033984;28;20055;-85
2021/07/24 10:01:19;;;;;;;17.33;12.43;;;;;;;;;;5033057;28;20112;-85
2021/07/24 10:04:04;;;;;;;15.67;12.43;;;;;;;;;;5034629;28;20426;-86
2021/07/24 10:06:52;;;;;;;17.58;13.23;;;;;;;;;;5034389;28;20036;-86
2021/07/24 10:09:40;;;;;;;14.48;11.63;;;;;;;;;;5032860;28;20087;-86
2021/07/24 10:12:25;;;;;;;15.23;11.90;;;;;;;;;;5042178;28;20421;-86
2021/07/24 10:15:11;;;;;;;17.67;12.27;;;;;;;;;;5047356;28;20134;-85
2021/07/24 10:17:57;;;;;;;14.50;11.02;;;;;;;;;;5048845;28;20021;-86
2021/07/24 10:20:43;;;;;;;20.67;12.80;;;;;;;;;;5032329;28;20047;-85
2021/07/24 10:23:28;;;;;;;15.60;11.20;;;;;;;;;;5033643;28;20128;-85
2021/07/24 10:26:15;;;;;;;18.42;13.73;;;;;;;;;;5035989;28;20084;-86
2021/07/24 10:29:04;;;;;;;15.73;12.07;;;;;;;;;;5033098;28;20028;-84
2021/07/24 10:32:01;;;;;;;13.25;9.90;;;;;;;;;;5038186;28;20421;-86
2021/07/24 10:34:48;;;;;;;21.00;11.48;;;;;;;;;;5038330;28;20036;-85
2021/07/24 10:37:44;;;;;;;18.67;10.77;;;;;;;;;;5038614;28;20689;-84
2021/07/24 10:40:30;;;;;;;15.25;9.93;;;;;;;;;;5037929;28;20353;-85
2021/07/24 10:43:35;;;;;;;15.50;10.25;;;;;;;;;;5037468;28;20041;-88
2021/07/24 10:46:21;;;;;;;11.27;8.77;;;;;;;;;;5037846;28;20056;-85
2021/07/24 10:49:06;;;;;;;15.55;9.13;;;;;;;;;;5035989;28;20169;-86
2021/07/24 10:51:55;;;;;;;15.43;8.88;;;;;;;;;;5037649;28;20017;-86
2021/07/24 10:54:59;;;;;;;15.10;7.97;;;;;;;;;;5037443;28;20053;-85
2021/07/24 10:57:44;;;;;;;12.35;8.40;;;;;;;;;;5037296;28;20057;-88
2021/07/24 11:00:30;;;;;;;12.68;7.75;;;;;;;;;;5037536;28;20507;-85
2021/07/24 11:03:35;;;;;;;13.55;9.18;;;;;;;;;;5036735;28;20139;-86
2021/07/24 11:06:28;;;;;;;13.07;7.88;;;;;;;;;;5037150;28;20028;-85
2021/07/24 11:09:15;;;;;;;11.00;6.15;;;;;;;;;;5033654;28;20607;-85
2021/07/24 11:12:00;;;;;;;13.50;6.80;;;;;;;;;;5041208;28;20024;-85
2021/07/24 11:14:48;;;;;;;11.85;6.60;;;;;;;;;;5050015;28;20032;-84
2021/07/24 11:17:34;;;;;;;10.55;6.43;;;;;;;;;;5036851;28;20058;-85
2021/07/24 11:20:24;;;;;;;11.25;6.00;;;;;;;;;;5035011;28;20036;-85
2021/07/24 11:23:09;;;;;;;10.82;6.63;;;;;;;;;;5036436;28;20330;-84
2021/07/24 11:26:05;;;;;;;13.80;6.60;;;;;;;;;;5036576;28;20107;-85
2021/07/24 11:28:50;;;;;;;21.23;16.63;;;;;;;;;;5036395;28;20376;-84
2021/07/24 11:31:36;;;;;;;21.73;19.05;;;;;;;;;;5036799;28;20486;-85
2021/07/24 11:34:22;;;;;;;13.30;8.30;;;;;;;;;;5036372;28;20480;-85
2021/07/24 11:37:07;;;;;;;12.25;6.85;;;;;;;;;;5036090;28;20083;-85
2021/07/24 11:39:52;;;;;;;9.50;6.38;;;;;;;;;;5035823;28;20041;-84
2021/07/24 11:42:38;;;;;;;11.13;7.35;;;;;;;;;;5036092;28;20415;-84
2021/07/24 11:45:23;;;;;;;12.45;7.18;;;;;;;;;;5036462;28;20025;-86
2021/07/24 11:48:13;;;;;;;11.02;7.35;;;;;;;;;;5036402;28;20017;-86
2021/07/24 11:50:59;;;;;;;11.38;7.32;;;;;;;;;;5036230;28;20699;-84
2021/07/24 11:53:49;;;;;;;11.00;7.20;;;;;;;;;;5036267;28;20032;-84
2021/07/24 11:56:35;;;;;;;14.52;8.50;;;;;;;;;;5036099;28;20033;-84
2021/07/24 11:59:20;;;;;;;23.20;20.65;;;;;;;;;;5036174;28;20047;-84
2021/07/24 12:02:18;;;;;;;10.98;7.22;;;;;;;;;;5034041;28;20049;-82
2021/07/24 12:05:03;;;;;;;10.93;7.85;;;;;;;;;;5022141;28;20025;-83
2021/07/24 12:07:51;;;;;;;11.60;7.65;;;;;;;;;;5012795;28;20029;-85
2021/07/24 12:10:41;;;;;;;13.63;7.27;;;;;;;;;;5015824;28;20033;-83
2021/07/24 12:13:27;;;;;;;12.25;7.55;;;;;;;;;;5048348;28;20012;-84
2021/07/24 12:16:13;;;;;;;11.48;8.00;;;;;;;;;;5040030;28;20039;-83
2021/07/24 12:19:09;;;;;;;11.30;7.40;;;;;;;;;;5035608;28;20062;-84
2021/07/24 12:22:10;;;;;;;11.00;8.02;;;;;;;;;;5035440;28;20025;-84
2021/07/24 12:25:10;;;;;;;11.15;8.27;;;;;;;;;;5035537;28;20029;-85
2021/07/24 12:27:55;;;;;;;12.63;8.77;;;;;;;;;;5035362;28;20036;-84
2021/07/24 12:30:40;;;;;;;12.57;8.65;;;;;;;;;;5033410;28;20037;-84
2021/07/24 12:33:42;;;;;;;11.93;7.80;;;;;;;;;;5034913;28;20395;-84
2021/07/24 12:36:28;;;;;;;10.65;7.88;;;;;;;;;;5035093;28;20485;-83
2021/07/24 12:39:19;;;;;;;13.10;7.93;;;;;;;;;;5034977;28;20033;-82
2021/07/24 12:42:06;;;;;;;13.88;8.90;;;;;;;;;;5033212;28;20021;-83
2021/07/24 12:44:51;;;;;;;11.55;7.22;;;;;;;;;;5035064;28;20448;-82
2021/07/24 12:47:38;;;;;;;10.65;7.40;;;;;;;;;;5034984;28;20029;-83
2021/07/24 12:50:23;;;;;;;14.30;11.15;;;;;;;;;;5034308;28;20413;-83
2021/07/24 12:53:18;;;;;;;11.55;7.68;;;;;;;;;;5034796;28;20537;-83
2021/07/24 12:56:04;;;;;;;10.02;7.00;;;;;;;;;;5034955;28;20086;-84
2021/07/24 12:58:49;;;;;;;14.00;7.40;;;;;;;;;;5034897;28;20035;-85
2021/07/24 13:01:34;;;;;;;10.70;7.55;;;;;;;;;;5034422;28;20384;-84
2021/07/24 13:04:19;;;;;;;11.38;6.68;;;;;;;;;;5034564;28;20029;-84
2021/07/24 13:07:06;;;;;;;11.32;7.40;;;;;;;;;;5034882;28;20025;-84
2021/07/24 13:09:55;;;;;;;12.30;7.03;;;;;;;;;;5034823;28;20028;-84
2021/07/24 13:12:41;;;;;;;9.93;7.38;;;;;;;;;;5044588;28;20024;-84
2021/07/24 13:15:26;;;;;;;10.88;7.68;;;;;;;;;;5045291;28;20021;-83
2021/07/24 13:18:12;;;;;;;12.98;7.80;;;;;;;;;;5034920;28;20391;-84
2021/07/24 13:20:57;;;;;;;10.77;8.07;;;;;;;;;;5034753;28;20511;-83
2021/07/24 13:23:44;;;;;;;14.15;8.00;;;;;;;;;;5034519;28;20032;-83
2021/07/24 13:29:31;;;;;;;13.07;7.30;;;;;;;;;;5048433;28;20027;-83
2021/07/24 13:32:17;;;;;;;33.05;29.58;;;;;;;;;;5034584;28;20052;-83
2021/07/24 13:35:03;;;;;;;19.30;16.48;;;;;;;;;;5034605;28;20032;-83
2021/07/24 13:37:48;;;;;;;12.60;8.40;;;;;;;;;;5034941;28;20032;-84
2021/07/24 13:40:33;;;;;;;12.38;7.78;;;;;;;;;;5032602;28;20137;-83
2021/07/24 13:43:19;;;;;;;12.60;7.80;;;;;;;;;;5033920;28;20033;-83
2021/07/24 13:46:04;;;;;;;11.27;7.13;;;;;;;;;;5034204;28;20029;-83
2021/07/24 13:48:49;;;;;;;10.73;7.10;;;;;;;;;;5034212;28;20120;-83
2021/07/24 13:51:34;;;;;;;11.05;7.18;;;;;;;;;;5033945;28;20029;-83
2021/07/24 13:54:19;;;;;;;10.77;6.13;;;;;;;;;;5034164;28;20024;-84
2021/07/24 13:57:05;;;;;;;15.85;7.68;;;;;;;;;;5034099;28;20116;-84
2021/07/24 13:59:50;;;;;;;12.45;6.90;;;;;;;;;;5033948;28;20104;-84
2021/07/24 14:02:35;;;;;;;11.13;7.20;;;;;;;;;;5033370;28;20078;-83
2021/07/24 14:05:20;;;;;;;12.95;7.28;;;;;;;;;;5034031;28;20036;-83
2021/07/24 14:08:06;;;;;;;12.10;7.22;;;;;;;;;;5033817;28;20143;-84
2021/07/24 14:10:51;;;;;;;11.68;6.88;;;;;;;;;;5033610;28;20017;-84
2021/07/24 14:13:36;;;;;;;12.90;7.50;;;;;;;;;;5051518;28;20028;-83
2021/07/24 14:16:21;;;;;;;14.00;8.05;;;;;;;;;;5020493;28;20084;-84
2021/07/24 14:19:07;;;;;;;10.65;7.22;;;;;;;;;;5034311;28;20027;-83
2021/07/24 14:21:52;;;;;;;11.93;6.72;;;;;;;;;;5033983;28;20384;-83
2021/07/24 14:24:37;;;;;;;12.07;8.10;;;;;;;;;;5030803;28;20631;-84
2021/07/24 14:27:22;;;;;;;18.30;16.35;;;;;;;;;;5034063;28;20067;-84
2021/07/24 14:30:08;;;;;;;10.50;7.57;;;;;;;;;;5046501;28;20033;-84
2021/07/24 14:32:53;;;;;;;11.20;7.18;;;;;;;;;;5034177;28;20116;-84
2021/07/24 14:35:41;;;;;;;8.82;6.82;;;;;;;;;;5034038;28;20071;-84
2021/07/24 14:38:27;;;;;;;10.50;6.93;;;;;;;;;;5034496;28;20060;-84
2021/07/24 14:41:12;;;;;;;10.52;7.00;;;;;;;;;;5032256;28;20128;-83
2021/07/24 14:44:00;;;;;;;10.90;6.60;;;;;;;;;;5034359;28;20388;-83
2021/07/24 14:46:46;;;;;;;10.82;6.45;;;;;;;;;;5035052;28;20407;-84
2021/07/24 14:49:32;;;;;;;9.80;6.65;;;;;;;;;;5034797;28;20071;-83
2021/07/24 14:52:17;;;;;;;12.05;9.63;;;;;;;;;;5036333;28;20028;-83
2021/07/24 14:55:02;;;;;;;11.45;7.18;;;;;;;;;;5036446;28;20074;-83
2021/07/24 14:57:47;;;;;;;9.15;6.00;;;;;;;;;;5035184;28;20079;-85
2021/07/24 15:00:39;;;;;;;13.85;7.97;;;;;;;;;;5034912;28;20032;-84
2021/07/24 15:03:24;;;;;;;10.77;6.00;;;;;;;;;;5033568;28;20053;-83
2021/07/24 15:06:10;;;;;;;11.73;6.53;;;;;;;;;;5034532;28;20021;-83
2021/07/24 15:08:55;;;;;;;10.50;6.85;;;;;;;;;;5032730;28;20040;-82
2021/07/24 15:11:42;;;;;;;9.13;6.28;;;;;;;;;;5035333;28;20005;-84
2021/07/24 15:14:28;;;;;;;9.45;6.35;;;;;;;;;;5056239;28;20023;-84
2021/07/24 15:17:13;;;;;;;9.48;6.03;;;;;;;;;;5034010;28;20044;-85
2021/07/24 15:20:01;;;;;;;30.17;26.92;;;;;;;;;;5037409;28;20080;-83
2021/07/24 15:22:46;;;;;;;11.13;6.35;;;;;;;;;;5036790;28;20102;-84
2021/07/24 15:25:32;;;;;;;8.73;5.85;;;;;;;;;;5036675;28;20032;-84
2021/07/24 15:28:17;;;;;;;11.50;6.20;;;;;;;;;;5036855;28;20454;-84
2021/07/24 15:31:02;;;;;;;9.63;6.78;;;;;;;;;;5035159;28;20106;-82
2021/07/24 15:33:47;;;;;;;12.32;7.07;;;;;;;;;;5034580;28;20025;-84
2021/07/24 15:36:36;;;;;;;12.73;7.45;;;;;;;;;;5036383;28;20395;-83
2021/07/24 15:39:25;;;;;;;;;;;;;;;;;;5036717;28;20448;-83
2021/07/24 15:42:16;;;;;;;10.70;6.97;;;;;;;;;;5036566;28;19951;-83
2021/07/24 15:45:01;;;;;;;14.60;7.45;;;;;;;;;;5036328;28;20895;-83
2021/07/24 15:47:46;;;;;;;10.63;6.85;;;;;;;;;;5033133;28;20384;-83
2021/07/24 15:50:33;;;;;;;14.07;7.03;;;;;;;;;;5036272;28;20498;-83
2021/07/24 15:53:21;;;;;;;11.27;8.38;;;;;;;;;;5032962;28;20036;-85
2021/07/24 15:56:08;;;;;;;19.00;7.30;;;;;;;;;;5033019;28;20506;-83
2021/07/24 15:58:53;;;;;;;11.27;6.85;;;;;;;;;;5036162;28;20033;-84
2021/07/24 16:01:40;;;;;;;11.85;7.30;;;;;;;;;;5035832;28;20066;-83
2021/07/24 16:04:25;;;;;;;9.40;7.07;;;;;;;;;;5035832;28;20021;-83
2021/07/24 16:07:10;;;;;;;9.07;6.82;;;;;;;;;;5035931;28;20067;-85
2021/07/24 16:09:55;;;;;;;11.35;7.22;;;;;;;;;;5035754;28;20025;-83
2021/07/24 16:12:41;;;;;;;11.00;7.35;;;;;;;;;;5035961;28;20076;-85
2021/07/24 16:15:26;;;;;;;15.38;9.75;;;;;;;;;;5042849;28;20415;-83
2021/07/24 16:18:11;;;;;;;12.88;9.90;;;;;;;;;;5055636;28;20509;-86
2021/07/24 16:20:56;;;;;;;17.58;12.93;;;;;;;;;;5055263;28;20475;-83